x

Halibut Bank (46146) Wave Buoy

12:00am - Sat 22nd Nov 2014 All times are PST. -8 hours from GMT.

  • Sig Wave height 2.3ft
  • Peak Period 4s
  • Wind
    18mph, 25mph gusts
  • Sea Temp 49°f
  • 空気 Temp 48°f
  • Sea Pressure 996.8mb
  • Halibut Bank
  • Halibut Bank

More Historic Weather Station data

Upgrade to MSW Pro to gain access to the past 30 days of data for over 8000 Wavebouys and Weather Stations around the globe.

Join Pro

Comparision Forecast

View Surf forecast
   
Sat 11/22 12:00am 2.5ft 4s 18 25 mph 996.8mb 49f 48f
Fri 11/21 11:00pm 3.5ft 4s 18 25 mph 995.5mb 49f 49f
10:00pm 3.5ft 4s 27 34 mph 993.4mb 50f 49f
9:00pm 2ft 3s 31 38 mph 991.5mb 50f 49f
8:00pm 2.5ft 4s 13 16 mph 990.9mb 50f 49f
7:00pm 3ft 4s 18 20 mph 990.2mb 50f 49f
6:00pm 3ft 4s 20 25 mph 990.2mb 50f 50f
4:00pm 3.5ft 4s 25 29 mph 991.3mb 49f 49f
3:00pm 3.5ft 4s 27 31 mph 992.4mb 49f 49f
2:00pm 3.5ft 4s 27 29 mph 993.5mb 49f 49f
1:00pm 2.5ft 4s 22 29 mph 995.8mb 49f 49f
12:00pm 2.5ft 4s 25 27 mph 997.7mb 49f 49f
11:00am 2.5ft 4s 20 22 mph 999.9mb 49f 49f
10:00am 2.5ft 4s 22 27 mph 1001mb 49f 49f
9:00am 3ft 4s 22 29 mph 1002mb 49f 49f
8:00am 2.5ft 4s 25 29 mph 1003mb 49f 49f
7:00am 2.5ft 4s 22 25 mph 1003.6mb 49f 49f
6:00am 2ft 4s 22 27 mph 1004.7mb 49f 49f
5:00am 2ft 3s 22 25 mph 1005.9mb 49f 49f
4:00am 1.6ft 3s 20 25 mph 1007.2mb 49f 49f
3:00am 1.3ft 3s 18 22 mph 1008.1mb 49f 49f
2:00am 1.3ft 3s 18 20 mph 1009.2mb 50f 49f
1:00am 1.3ft 3s 16 18 mph 1009.9mb 49f 50f
12:00am 1.3ft 3s 13 18 mph 1010.4mb 49f 50f
Thu 11/20 11:00pm 1ft 3s 16 18 mph 1010.9mb 49f 50f
10:00pm 1ft 3s 18 20 mph 1011.4mb 49f 49f
9:00pm 1ft 3s 13 18 mph 1011.9mb 49f 49f
8:00pm 1.3ft 3s 13 18 mph 1012.1mb 49f 49f
7:00pm 1.6ft 3s 13 16 mph 1012mb 49f 49f
6:00pm 1.6ft 4s 18 20 mph 1011.9mb 49f 50f
5:00pm 2ft 4s 18 20 mph 1011.9mb 49f 50f
4:00pm 2ft 4s 18 20 mph 1012.1mb 49f 49f
3:00pm 2.5ft 4s 18 20 mph 1012mb 49f 49f
2:00pm 2.5ft 4s 18 20 mph 1012.1mb 49f 49f
1:00pm 3ft 4s 20 22 mph 1012.6mb 49f 49f
12:00pm 3ft 4s 20 25 mph 1012.9mb 49f 49f
11:00am 3.5ft 4s 22 27 mph 1013mb 48f 49f
10:00am 3ft 4s 22 29 mph 1012.8mb 48f 48f
9:00am 3ft 4s 25 29 mph 1012.7mb 47f 48f
8:00am 3.5ft 4s 20 25 mph 1012.8mb 47f 47f
7:00am 3.5ft 4s 25 31 mph 1012.3mb 47f 47f
6:00am 3.5ft 4s 29 34 mph 1011.6mb 47f 46f
5:00am 3ft 4s 25 29 mph 1011.7mb 47f 46f
4:00am 1.6ft 3s 22 27 mph 1011.2mb 47f 47f
3:00am 0.7ft 2s 13 20 mph 1010.9mb 46f 47f
2:00am 0.3ft 2s 9 11 mph 1010.2mb 46f 46f
1:00am 0.3ft 2s 9 11 mph 1010mb 46f 46f
12:00am 0.7ft 2s 9
mph
1009.8mb 46f 46f
Wed 11/19 11:00pm 0.3ft 2s 9
mph
1010.1mb 46f 46f
10:00pm 0.3ft 2s 9 13 mph 1010mb 46f 46f
9:00pm 0.3ft 6s 2
mph
1009.7mb 46f 46f
8:00pm 0.3ft 2s 4
mph
1009.9mb 45f 46f
7:00pm 0.7ft 4s 7
mph
1009.9mb 45f 46f
6:00pm 0.7ft 2s 9
mph
1009.7mb 45f 46f
5:00pm 0.7ft 2s 9 11 mph 1010mb 45f 46f
4:00pm 0.7ft 2s 11 13 mph 1010.7mb 45f 45f
3:00pm 0.3ft 2s 11
mph
1010.8mb 46f 45f
2:00pm 0.3ft 5s 9 11 mph 1011.7mb 45f 45f
1:00pm 0.3ft 6s 9 11 mph 1012.6mb 45f 45f
12:00pm 0.3ft 6s 7
mph
1013.5mb 45f 45f
11:00am 0.3ft 3s 4
mph
1014.6mb 45f 44f
10:00am 0.3ft 6s 4 7 mph 1015.4mb 44f 44f
9:00am 0.3ft 6s 4
mph
1016mb 44f 44f
8:00am 0.3ft 6s  -  2 mph 1016.3mb 45f 44f
7:00am 0.3ft 3s  -  2 mph 1016.8mb 44f 44f
6:00am  -  2s 2 4 mph 1017.1mb 44f 44f
5:00am 0.3ft 3s 2 4 mph 1017.4mb 44f 43f
4:00am 0.3ft 3s  -  mph 1017.7mb 44f 44f
3:00am 0.3ft 2s  -  2 mph 1018.1mb 44f 43f
2:00am 0.3ft 13s 4
mph
1018.7mb 44f 44f
1:00am 0.3ft 4s 2
mph
1019mb 45f 44f
12:00am 0.3ft 3s  -  2 mph 1019.2mb 45f 44f
Tue 11/18 11:00pm 0.3ft 6s  -  mph 1019.2mb 45f 44f
10:00pm 0.3ft 3s 4
mph
1019.3mb 44f 44f
9:00pm 0.3ft 4s  -  mph 1019.4mb 45f 44f
8:00pm 0.3ft 5s  -  mph 1019.6mb 45f 44f
7:00pm 0.3ft 3s 2
mph
1019.6mb 45f 44f
6:00pm 0.3ft 6s 2
mph
1019.8mb 45f 44f
5:00pm 0.3ft 6s  -  mph 1020.1mb 45f 44f
4:00pm 0.3ft 6s  -  2 mph 1020mb 45f 43f
3:00pm 0.3ft 2s  -  mph 1020mb 45f 44f
2:00pm 0.3ft 6s  -  2 mph 1019.9mb 45f 44f
1:00pm 0.3ft 2s  -  2 mph 1020.3mb 45f 44f
12:00pm 0.3ft 6s 2
mph
1020.8mb 45f 44f
11:00am 0.3ft 2s  -  2 mph 1021.2mb 45f 43f
10:00am 0.7ft 2s 4 7 mph 1021.2mb 46f 43f